UWKE 212330Z 23005MPS 9999 -SN SCT008 M20/M21 Q1031 R21/810070 NOSIG RMK OBST OBSC QFE756/1009
QNH:(hPa/inHg/mmHg)1031 / 30.45 / 773
QFE:(hPa/inHg/mmHg)1007 / 29.74 / 755
Temperature-20
Dew Point-21
Visibility> 10000
WeatherLight Snow
Cloud CoverSCT (800);
Transition Height700 m./3000 ft.
Transition LevelFL40
SQUAWK